Time;durP1;ratioP1;P1;durP2;ratioP2;P2;SDS_P1;SDS_P2;PMS_P1;PMS_P2;Temp;Humidity;BMP_temperature;BMP_pressure;BME280_temperature;BME280_humidity;BME280_pressure;Samples;Min_cycle;Max_cycle;Signal;HPM_P1;HPM_P2
2023/11/24 00:02:15;;;;;;;16.27;1.38;;;4.70;100.00;;;;;;5010552;28;20498;-82
2023/11/24 00:04:43;;;;;;;16.08;1.70;;;4.70;100.00;;;;;;5028804;28;20042;-82
2023/11/24 00:07:11;;;;;;;14.30;1.63;;;4.70;100.00;;;;;;5029198;28;20049;-82
2023/11/24 00:09:39;;;;;;;13.02;2.72;;;4.60;100.00;;;;;;5029876;28;20099;-82
2023/11/24 00:12:06;;;;;;;12.57;1.30;;;4.60;100.00;;;;;;5010518;28;20048;-82
2023/11/24 00:14:33;;;;;;;11.88;1.67;;;4.60;100.00;;;;;;5030165;28;20053;-82
2023/11/24 00:17:00;;;;;;;9.05;1.92;;;4.50;100.00;;;;;;5011754;28;20136;-81
2023/11/24 00:19:27;;;;;;;14.35;1.88;;;4.50;100.00;;;;;;5028791;28;20120;-82
2023/11/24 00:21:54;;;;;;;11.60;1.60;;;4.60;100.00;;;;;;5010125;28;20069;-82
2023/11/24 00:24:21;;;;;;;15.95;1.63;;;4.50;100.00;;;;;;5011606;28;20072;-81
2023/11/24 00:26:48;;;;;;;8.20;1.02;;;4.50;100.00;;;;;;5028839;28;20054;-82
2023/11/24 00:29:15;;;;;;;5.65;1.38;;;4.50;100.00;;;;;;5011383;28;20053;-81
2023/11/24 00:31:43;;;;;;;14.90;0.98;;;4.50;100.00;;;;;;5007502;28;20108;-82
2023/11/24 00:34:10;;;;;;;12.50;1.50;;;4.50;100.00;;;;;;5011630;28;20045;-82
2023/11/24 00:36:37;;;;;;;14.15;1.20;;;4.40;100.00;;;;;;5008051;28;20053;-82
2023/11/24 00:39:04;;;;;;;9.35;1.63;;;4.40;100.00;;;;;;5024290;28;20133;-81
2023/11/24 00:41:32;;;;;;;7.28;2.38;;;4.40;100.00;;;;;;5025493;28;20037;-82
2023/11/24 00:44:01;;;;;;;10.82;1.38;;;4.30;100.00;;;;;;5029028;28;20046;-82
2023/11/24 00:46:29;;;;;;;18.77;2.25;;;4.30;100.00;;;;;;5024290;28;20502;-82
2023/11/24 00:48:57;;;;;;;7.47;1.23;;;4.30;100.00;;;;;;5022725;28;20067;-81
2023/11/24 00:51:25;;;;;;;7.70;1.38;;;4.30;100.00;;;;;;5009579;28;20064;-81
2023/11/24 00:53:53;;;;;;;10.18;1.17;;;4.20;100.00;;;;;;5030353;28;20050;-81
2023/11/24 00:56:20;;;;;;;12.75;1.63;;;4.20;100.00;;;;;;5013103;28;20065;-83
2023/11/24 00:58:48;;;;;;;11.85;1.60;;;4.30;100.00;;;;;;5014275;28;20073;-82
2023/11/24 01:01:15;;;;;;;20.92;1.70;;;4.40;100.00;;;;;;5014415;28;20056;-82
2023/11/24 01:03:42;;;;;;;18.85;1.58;;;4.40;100.00;;;;;;5014669;28;20111;-82
2023/11/24 01:06:09;;;;;;;10.15;2.03;;;4.40;100.00;;;;;;5048140;28;20071;-81
2023/11/24 01:08:36;;;;;;;9.18;2.13;;;4.50;100.00;;;;;;5033761;28;20053;-81
2023/11/24 01:11:03;;;;;;;15.40;1.83;;;4.40;100.00;;;;;;5025263;28;20463;-81
2023/11/24 01:13:34;;;;;;;19.27;3.10;;;4.30;100.00;;;;;;5013357;28;20042;-81
2023/11/24 01:16:05;;;;;;;13.40;2.72;;;4.10;100.00;;;;;;5029895;28;20494;-81
2023/11/24 01:18:36;;;;;;;20.85;2.30;;;4.10;100.00;;;;;;5030769;28;20045;-82
2023/11/24 01:21:06;;;;;;;10.57;1.60;;;4.00;100.00;;;;;;5014172;28;20038;-82
2023/11/24 01:23:35;;;;;;;15.32;2.20;;;3.90;100.00;;;;;;5030863;28;20060;-82
2023/11/24 01:26:03;;;;;;;16.42;2.20;;;3.90;100.00;;;;;;5012572;28;20046;-82
2023/11/24 01:28:30;;;;;;;10.80;1.08;;;3.80;100.00;;;;;;5014671;28;20513;-82
2023/11/24 01:30:57;;;;;;;14.15;1.30;;;3.80;100.00;;;;;;5011874;28;20586;-83
2023/11/24 01:33:24;;;;;;;20.48;1.60;;;3.70;100.00;;;;;;5018596;28;20742;-83
2023/11/24 01:35:52;;;;;;;12.20;1.90;;;3.70;100.00;;;;;;5014488;28;20505;-84
2023/11/24 01:38:19;;;;;;;14.32;1.50;;;3.70;100.00;;;;;;5032145;28;20049;-82
2023/11/24 01:40:46;;;;;;;10.65;1.73;;;3.70;100.00;;;;;;5028493;28;20159;-84
2023/11/24 01:43:13;;;;;;;10.95;1.90;;;3.60;100.00;;;;;;5014485;28;20106;-82
2023/11/24 01:45:40;;;;;;;7.13;1.25;;;3.70;100.00;;;;;;5024428;28;20049;-82
2023/11/24 01:48:08;;;;;;;17.40;1.25;;;3.70;100.00;;;;;;5014849;28;20128;-83
2023/11/24 01:50:37;;;;;;;14.45;1.80;;;3.60;100.00;;;;;;5008940;28;20108;-82
2023/11/24 01:53:05;;;;;;;9.75;1.50;;;3.70;100.00;;;;;;5031654;28;20065;-82
2023/11/24 01:55:32;;;;;;;6.53;1.60;;;3.60;100.00;;;;;;5029659;28;20037;-82
2023/11/24 01:57:59;;;;;;;5.65;1.65;;;3.60;100.00;;;;;;5031925;28;20053;-83
2023/11/24 02:00:26;;;;;;;9.27;1.35;;;3.70;100.00;;;;;;5012051;28;20544;-83
2023/11/24 02:02:54;;;;;;;9.02;1.48;;;3.70;100.00;;;;;;5009055;28;20054;-82
2023/11/24 02:05:21;;;;;;;10.70;1.63;;;3.70;100.00;;;;;;5029746;28;20461;-82
2023/11/24 02:07:49;;;;;;;13.45;1.67;;;3.70;100.00;;;;;;5006968;28;20061;-83
2023/11/24 02:10:17;;;;;;;9.55;1.20;;;3.80;100.00;;;;;;5006375;28;20433;-82
2023/11/24 02:12:44;;;;;;;16.88;2.08;;;3.80;100.00;;;;;;5026328;28;20655;-82
2023/11/24 02:15:11;;;;;;;20.30;1.48;;;3.70;100.00;;;;;;5031105;28;20073;-82
2023/11/24 02:17:37;;;;;;;7.35;1.58;;;3.80;100.00;;;;;;5029799;28;20569;-82
2023/11/24 02:20:10;;;;;;;11.98;1.58;;;3.80;100.00;;;;;;5014624;28;20045;-82
2023/11/24 02:22:46;;;;;;;7.95;1.30;;;3.90;100.00;;;;;;5030830;28;20103;-81
2023/11/24 02:25:13;;;;;;;14.18;0.93;;;3.80;100.00;;;;;;5031081;28;20442;-82
2023/11/24 02:27:40;;;;;;;14.88;1.25;;;3.80;100.00;;;;;;5024876;28;20137;-82
2023/11/24 02:30:09;;;;;;;18.13;1.63;;;3.80;100.00;;;;;;5030892;28;20080;-82
2023/11/24 02:32:36;;;;;;;12.15;1.27;;;3.80;100.00;;;;;;5028504;28;20501;-82
2023/11/24 02:35:05;;;;;;;6.63;1.45;;;3.80;100.00;;;;;;5030650;28;20065;-83
2023/11/24 02:37:32;;;;;;;15.38;1.88;;;3.70;100.00;;;;;;5029860;28;20049;-83
2023/11/24 02:39:59;;;;;;;12.73;1.88;;;3.80;100.00;;;;;;5031901;28;20053;-82
2023/11/24 02:42:26;;;;;;;13.38;1.65;;;3.80;100.00;;;;;;5028022;28;20135;-83
2023/11/24 02:44:53;;;;;;;14.40;1.52;;;3.80;100.00;;;;;;5014057;28;20049;-82
2023/11/24 02:47:20;;;;;;;16.38;1.70;;;3.80;100.00;;;;;;5028543;28;20053;-82
2023/11/24 02:49:47;;;;;;;6.95;1.00;;;3.80;100.00;;;;;;5027165;28;20499;-83
2023/11/24 02:52:14;;;;;;;15.05;1.48;;;3.80;100.00;;;;;;5008720;28;20107;-82
2023/11/24 02:54:42;;;;;;;13.65;2.05;;;3.80;100.00;;;;;;5024124;28;20050;-82
2023/11/24 02:57:09;;;;;;;7.82;1.52;;;3.80;100.00;;;;;;5013400;28;20046;-81
2023/11/24 02:59:36;;;;;;;8.43;1.45;;;3.90;100.00;;;;;;5013052;28;20053;-80
2023/11/24 03:02:03;;;;;;;15.68;1.50;;;3.90;100.00;;;;;;5011817;28;20045;-79
2023/11/24 03:04:30;;;;;;;23.50;2.25;;;3.90;100.00;;;;;;5028912;28;20088;-77
2023/11/24 03:06:57;;;;;;;26.50;2.20;;;4.00;100.00;;;;;;5009207;28;20134;-77
2023/11/24 03:09:25;;;;;;;15.27;1.88;;;3.90;100.00;;;;;;5024302;28;20051;-77
2023/11/24 03:11:53;;;;;;;3.45;0.85;;;3.90;100.00;;;;;;5022549;28;20431;-78
2023/11/24 03:14:20;;;;;;;26.40;2.45;;;3.90;100.00;;;;;;5011552;28;20045;-77
2023/11/24 03:16:47;;;;;;;21.85;1.65;;;4.00;100.00;;;;;;5004548;28;20056;-77
2023/11/24 03:19:15;;;;;;;17.60;1.92;;;4.00;100.00;;;;;;5025652;28;20197;-76
2023/11/24 03:21:43;;;;;;;17.45;1.77;;;4.00;100.00;;;;;;5023272;28;20052;-76
2023/11/24 03:24:10;;;;;;;11.75;1.27;;;4.00;100.00;;;;;;5007117;28;20837;-76
2023/11/24 03:26:37;;;;;;;18.02;1.92;;;4.00;100.00;;;;;;5009272;28;20049;-81
2023/11/24 03:29:04;;;;;;;16.05;1.85;;;4.00;100.00;;;;;;5023327;28;20057;-76
2023/11/24 03:31:31;;;;;;;14.82;1.95;;;4.00;100.00;;;;;;5028081;28;20111;-79
2023/11/24 03:34:01;;;;;;;19.38;1.25;;;3.90;100.00;;;;;;5022081;28;20578;-76
2023/11/24 03:36:28;;;;;;;22.10;1.13;;;4.00;100.00;;;;;;5007437;28;20041;-76
2023/11/24 03:38:55;;;;;;;13.95;1.40;;;4.00;100.00;;;;;;5011602;28;20045;-76
2023/11/24 03:41:22;;;;;;;17.92;2.33;;;4.10;100.00;;;;;;5008419;28;20134;-78
2023/11/24 03:43:48;;;;;;;21.67;1.75;;;4.10;100.00;;;;;;5020363;28;20053;-88
2023/11/24 03:46:15;;;;;;;17.52;1.52;;;4.10;100.00;;;;;;5007260;28;20123;-86
2023/11/24 03:48:42;;;;;;;6.80;1.00;;;4.20;100.00;;;;;;5024420;28;20499;-79
2023/11/24 03:51:09;;;;;;;7.57;1.00;;;4.20;100.00;;;;;;5026306;28;20053;-79
2023/11/24 03:53:36;;;;;;;15.93;1.00;;;4.00;100.00;;;;;;5028834;28;20145;-79
2023/11/24 03:56:06;;;;;;;11.07;2.35;;;3.80;100.00;;;;;;5024409;28;20041;-80
2023/11/24 03:58:33;;;;;;;4.60;1.17;;;3.60;100.00;;;;;;5032834;28;20142;-80
2023/11/24 04:01:01;;;;;;;10.73;1.55;;;3.50;100.00;;;;;;5013515;28;20069;-77
2023/11/24 04:03:28;;;;;;;5.95;0.68;;;3.50;100.00;;;;;;5011812;28;20055;-78
2023/11/24 04:05:56;;;;;;;17.75;1.92;;;3.40;100.00;;;;;;5029933;28;20661;-77
2023/11/24 04:08:23;;;;;;;7.70;1.02;;;3.50;100.00;;;;;;5029081;28;20050;-77
2023/11/24 04:10:49;;;;;;;12.65;1.88;;;3.50;100.00;;;;;;5030036;28;20061;-78
2023/11/24 04:13:17;;;;;;;24.42;2.13;;;3.50;100.00;;;;;;5009535;28;20045;-78
2023/11/24 04:15:44;;;;;;;13.50;2.03;;;3.60;100.00;;;;;;5013017;28;20049;-78
2023/11/24 04:18:11;;;;;;;12.27;2.05;;;3.60;100.00;;;;;;5031388;28;20060;-77
2023/11/24 04:20:38;;;;;;;11.30;1.20;;;3.70;100.00;;;;;;5012124;28;20049;-78
2023/11/24 04:23:07;;;;;;;11.38;1.13;;;3.60;100.00;;;;;;5025591;28;20096;-78
2023/11/24 04:25:34;;;;;;;19.98;2.08;;;3.60;100.00;;;;;;5011640;28;20049;-78
2023/11/24 04:28:00;;;;;;;19.52;1.73;;;3.70;100.00;;;;;;5031691;28;20103;-79
2023/11/24 04:30:28;;;;;;;16.63;1.80;;;3.70;100.00;;;;;;5021396;28;20045;-74
2023/11/24 04:32:55;;;;;;;14.27;2.47;;;3.70;100.00;;;;;;5006421;28;20045;-74
2023/11/24 04:35:22;;;;;;;17.80;1.80;;;3.70;100.00;;;;;;5017776;28;20052;-74
2023/11/24 04:37:49;;;;;;;16.20;1.38;;;3.70;100.00;;;;;;5021520;28;20127;-74
2023/11/24 04:40:18;;;;;;;18.10;1.67;;;3.80;100.00;;;;;;5004298;28;20080;-74
2023/11/24 04:42:45;;;;;;;22.00;1.60;;;3.70;100.00;;;;;;5025194;28;20450;-74
2023/11/24 04:45:12;;;;;;;16.27;1.55;;;3.70;100.00;;;;;;5008512;28;20124;-74
2023/11/24 04:47:39;;;;;;;7.72;1.38;;;3.50;100.00;;;;;;5007322;28;20841;-74
2023/11/24 04:50:07;;;;;;;25.35;5.03;;;3.40;100.00;;;;;;5019362;28;20128;-74
2023/11/24 04:52:36;;;;;;;19.98;2.05;;;3.30;100.00;;;;;;5005848;28;20056;-75
2023/11/24 04:55:04;;;;;;;12.45;1.92;;;3.20;100.00;;;;;;5022909;28;20046;-75
2023/11/24 04:57:31;;;;;;;17.40;1.50;;;3.20;100.00;;;;;;5022215;28;20056;-74
2023/11/24 04:59:58;;;;;;;15.50;1.55;;;3.20;100.00;;;;;;5003987;28;20083;-75
2023/11/24 05:02:25;;;;;;;8.65;1.63;;;3.30;100.00;;;;;;5006820;28;20072;-77
2023/11/24 05:04:52;;;;;;;12.63;2.13;;;3.40;100.00;;;;;;5027317;28;20041;-76
2023/11/24 05:07:21;;;;;;;16.88;1.75;;;3.40;100.00;;;;;;5025823;28;20099;-76
2023/11/24 05:09:48;;;;;;;19.52;1.92;;;3.40;100.00;;;;;;5008345;28;20061;-76
2023/11/24 05:12:15;;;;;;;22.20;2.05;;;3.40;100.00;;;;;;5026798;28;20059;-77
2023/11/24 05:14:41;;;;;;;6.25;1.00;;;3.40;100.00;;;;;;5009726;28;20115;-76
2023/11/24 05:17:08;;;;;;;14.48;1.88;;;3.50;100.00;;;;;;5006041;28;20187;-75
2023/11/24 05:19:35;;;;;;;23.30;2.35;;;3.50;100.00;;;;;;5023834;28;20589;-76
2023/11/24 05:22:02;;;;;;;14.90;1.52;;;3.60;100.00;;;;;;5009378;28;20494;-74
2023/11/24 05:24:29;;;;;;;12.10;1.52;;;3.60;100.00;;;;;;5024824;28;20060;-75
2023/11/24 05:26:56;;;;;;;12.25;2.40;;;3.60;100.00;;;;;;5023673;28;20064;-74
2023/11/24 05:29:23;;;;;;;22.40;2.17;;;3.70;100.00;;;;;;5024121;28;20119;-73
2023/11/24 05:31:50;;;;;;;25.38;2.35;;;3.70;100.00;;;;;;5022814;28;20061;-74
2023/11/24 05:34:17;;;;;;;14.93;1.52;;;3.80;100.00;;;;;;5009568;28;20052;-74
2023/11/24 05:36:44;;;;;;;9.68;2.10;;;3.70;100.00;;;;;;5008326;28;20089;-74
2023/11/24 05:39:12;;;;;;;12.95;1.42;;;3.60;100.00;;;;;;5022316;28;20557;-74
2023/11/24 05:41:39;;;;;;;7.03;1.38;;;3.70;100.00;;;;;;5020869;28;20139;-74
2023/11/24 05:44:06;;;;;;;13.93;1.70;;;3.60;100.00;;;;;;5024250;28;20053;-77
2023/11/24 05:46:33;;;;;;;7.75;1.05;;;3.60;100.00;;;;;;5027174;28;20116;-77
2023/11/24 05:49:00;;;;;;;6.10;1.73;;;3.60;100.00;;;;;;5024368;28;20077;-77
2023/11/24 05:51:27;;;;;;;14.35;1.88;;;3.60;100.00;;;;;;5026801;28;20053;-77
2023/11/24 05:53:55;;;;;;;9.13;1.35;;;3.50;100.00;;;;;;5020904;28;20049;-78
2023/11/24 05:56:22;;;;;;;14.85;2.05;;;3.60;100.00;;;;;;5027736;28;20056;-77
2023/11/24 05:58:51;;;;;;;16.40;1.23;;;3.50;100.00;;;;;;5023686;28;20045;-77
2023/11/24 06:01:20;;;;;;;13.15;1.35;;;3.50;100.00;;;;;;5010306;28;20041;-75
2023/11/24 06:03:47;;;;;;;8.05;1.02;;;3.50;100.00;;;;;;5010401;28;20060;-73
2023/11/24 06:06:14;;;;;;;14.43;2.08;;;3.50;100.00;;;;;;5000303;28;20367;-74
2023/11/24 06:08:41;;;;;;;24.27;6.45;;;3.50;100.00;;;;;;5028007;28;20190;-76
2023/11/24 06:11:07;;;;;;;11.85;2.30;;;3.50;100.00;;;;;;5021470;28;20111;-75
2023/11/24 06:13:34;;;;;;;14.13;1.90;;;3.60;100.00;;;;;;5024205;28;20143;-73
2023/11/24 06:16:01;;;;;;;14.10;2.33;;;3.60;100.00;;;;;;5017427;28;20135;-74
2023/11/24 06:18:30;;;;;;;10.98;1.92;;;3.60;100.00;;;;;;5025875;28;20076;-77
2023/11/24 06:20:57;;;;;;;9.68;1.40;;;3.60;100.00;;;;;;5011307;28;20076;-80
2023/11/24 06:23:24;;;;;;;17.90;2.53;;;3.60;100.00;;;;;;5028848;28;20108;-78
2023/11/24 06:25:52;;;;;;;22.15;1.52;;;3.60;100.00;;;;;;5022977;28;20756;-79
2023/11/24 06:28:18;;;;;;;7.55;0.80;;;3.50;100.00;;;;;;5037639;28;20045;-82
2023/11/24 06:30:45;;;;;;;12.93;1.27;;;3.50;100.00;;;;;;5033296;28;20998;-76
2023/11/24 06:33:13;;;;;;;16.63;1.30;;;3.40;100.00;;;;;;5020218;28;20057;-77
2023/11/24 06:35:40;;;;;;;17.95;4.18;;;3.40;100.00;;;;;;5005397;28;20418;-77
2023/11/24 06:38:07;;;;;;;25.65;3.25;;;3.40;100.00;;;;;;5026958;28;20050;-76
2023/11/24 07:50:00;;;;;;;22.45;7.70;;;3.30;100.00;;;;;;5023587;28;20052;-78
2023/11/24 07:52:27;;;;;;;19.17;2.95;;;3.40;100.00;;;;;;5018615;28;20046;-71
2023/11/24 07:54:54;;;;;;;6.28;1.65;;;3.40;100.00;;;;;;5017414;28;20192;-70
2023/11/24 07:57:24;;;;;;;15.32;3.63;;;3.40;100.00;;;;;;5018607;28;20056;-70
2023/11/24 07:59:52;;;;;;;9.15;1.65;;;3.50;100.00;;;;;;5022647;28;20491;-71
2023/11/24 08:02:19;;;;;;;10.48;1.55;;;3.50;100.00;;;;;;5028228;28;20046;-70
2023/11/24 08:04:46;;;;;;;10.48;1.48;;;3.40;100.00;;;;;;5020691;28;20083;-70
2023/11/24 08:07:13;;;;;;;12.45;1.85;;;3.40;100.00;;;;;;5019490;28;20049;-71
2023/11/24 08:09:40;;;;;;;12.27;0.85;;;3.40;100.00;;;;;;5033527;28;20174;-70
2023/11/24 08:12:09;;;;;;;13.93;2.08;;;3.40;100.00;;;;;;5015175;28;20053;-70
2023/11/24 08:14:39;;;;;;;15.73;1.92;;;3.40;100.00;;;;;;5028295;28;20060;-71
2023/11/24 08:17:06;;;;;;;9.27;1.70;;;3.40;100.00;;;;;;5023630;28;20081;-71
2023/11/24 08:19:33;;;;;;;18.50;1.80;;;3.40;100.00;;;;;;5029716;28;20059;-71
2023/11/24 08:22:00;;;;;;;11.18;1.58;;;3.40;100.00;;;;;;5009501;28;20049;-71
2023/11/24 08:24:27;;;;;;;3.05;0.88;;;3.40;100.00;;;;;;5004157;28;20056;-74
2023/11/24 08:26:54;;;;;;;8.90;1.17;;;3.50;100.00;;;;;;5020914;28;20049;-76
2023/11/24 08:29:21;;;;;;;11.68;1.65;;;3.50;100.00;;;;;;5021480;28;20060;-74
2023/11/24 08:31:49;;;;;;;6.05;1.20;;;3.50;100.00;;;;;;4999611;28;20054;-78
2023/11/24 08:34:17;;;;;;;7.82;0.88;;;3.50;100.00;;;;;;5018271;28;20049;-73
2023/11/24 08:36:45;;;;;;;8.68;1.80;;;3.60;100.00;;;;;;5017984;28;20045;-74
2023/11/24 08:39:13;;;;;;;8.95;1.42;;;3.60;100.00;;;;;;5008951;28;20050;-75
2023/11/24 08:41:44;;;;;;;8.98;2.22;;;3.70;100.00;;;;;;5027019;28;20060;-76
2023/11/24 08:44:12;;;;;;;7.60;1.73;;;3.60;100.00;;;;;;5009673;28;20145;-91
2023/11/24 08:46:39;;;;;;;9.57;1.50;;;3.70;100.00;;;;;;5027725;28;20081;-76
2023/11/24 08:49:08;;;;;;;19.45;2.30;;;3.70;100.00;;;;;;5005354;28;20145;-84
2023/11/24 08:51:35;;;;;;;12.10;1.48;;;3.90;100.00;;;;;;5012980;28;20053;-84
2023/11/24 08:54:06;;;;;;;7.32;1.30;;;3.90;100.00;;;;;;5029157;28;20057;-84
2023/11/24 08:56:33;;;;;;;3.65;1.00;;;4.00;100.00;;;;;;5029254;28;20045;-83
2023/11/24 08:59:00;;;;;;;5.50;1.15;;;3.90;100.00;;;;;;5009549;28;20085;-83
2023/11/24 09:04:10;;;;;;;8.38;1.10;;;4.00;100.00;;;;;;5022614;23;19960;-78
2023/11/24 09:06:38;;;;;;;8.02;1.40;;;3.90;100.00;;;;;;5006409;28;20133;-78
2023/11/24 09:09:08;;;;;;;11.35;1.15;;;3.90;100.00;;;;;;5023855;28;20457;-78
2023/11/24 09:11:35;;;;;;;7.07;1.23;;;3.90;100.00;;;;;;5009807;28;20085;-78
2023/11/24 09:14:04;;;;;;;2.83;1.20;;;3.90;100.00;;;;;;5017669;28;20124;-79
2023/11/24 09:16:32;;;;;;;6.43;1.33;;;4.00;100.00;;;;;;5002545;28;20096;-78
2023/11/24 09:19:00;;;;;;;8.73;1.02;;;4.10;100.00;;;;;;5041177;28;20155;-78
2023/11/24 09:21:31;;;;;;;5.55;1.90;;;4.10;100.00;;;;;;5009868;28;20068;-77
2023/11/24 09:23:58;;;;;;;1.23;0.82;;;4.20;100.00;;;;;;5027523;28;20426;-77
2023/11/24 09:26:25;;;;;;;5.93;1.08;;;4.10;100.00;;;;;;5033400;28;20162;-77
2023/11/24 09:28:52;;;;;;;10.93;1.33;;;4.10;100.00;;;;;;5031793;28;20116;-77
2023/11/24 09:31:19;;;;;;;20.63;1.40;;;4.10;100.00;;;;;;5026818;28;20057;-77
2023/11/24 09:33:46;;;;;;;6.07;1.05;;;4.10;100.00;;;;;;5023278;28;20884;-77
2023/11/24 09:36:13;;;;;;;6.35;0.88;;;4.10;100.00;;;;;;5022631;28;20069;-78
2023/11/24 09:38:40;;;;;;;16.42;1.42;;;4.30;100.00;;;;;;5010614;28;20049;-77
2023/11/24 09:41:08;;;;;;;8.57;1.15;;;4.40;100.00;;;;;;5031856;28;20151;-77
2023/11/24 09:43:37;;;;;;;12.68;1.55;;;4.60;100.00;;;;;;5010603;28;20053;-77
2023/11/24 09:46:09;;;;;;;4.75;1.10;;;4.70;100.00;;;;;;5007117;28;20041;-77
2023/11/24 09:48:42;;;;;;;17.95;1.80;;;4.90;100.00;;;;;;5028623;28;20060;-76
2023/11/24 09:51:12;;;;;;;8.95;1.48;;;4.90;100.00;;;;;;5026411;28;20053;-77
2023/11/24 09:53:41;;;;;;;6.00;1.05;;;5.00;100.00;;;;;;5029823;28;20137;-77
2023/11/24 09:56:08;;;;;;;19.17;1.83;;;4.90;100.00;;;;;;5010422;28;20504;-77
2023/11/24 09:58:35;;;;;;;7.30;1.65;;;4.80;100.00;;;;;;5004712;28;20199;-77
2023/11/24 10:01:13;;;;;;;8.60;1.20;;;4.90;100.00;;;;;;5000059;28;20045;-77
2023/11/24 10:03:46;;;;;;;15.00;1.55;;;5.10;100.00;;;;;;5008393;28;20053;-77
2023/11/24 10:06:18;;;;;;;15.95;1.40;;;5.20;100.00;;;;;;5001010;28;20077;-76
2023/11/24 10:08:46;;;;;;;9.60;1.02;;;5.20;100.00;;;;;;5010577;28;20049;-75
2023/11/24 10:11:14;;;;;;;8.48;1.60;;;5.00;100.00;;;;;;5022969;28;20053;-75
2023/11/24 10:13:42;;;;;;;9.57;1.17;;;4.90;100.00;;;;;;5021291;28;20545;-76
2023/11/24 10:16:10;;;;;;;12.68;1.40;;;4.90;100.00;;;;;;5023319;28;20053;-75
2023/11/24 10:18:38;;;;;;;8.80;1.10;;;5.00;100.00;;;;;;5008314;28;20564;-76
2023/11/24 10:21:09;;;;;;;5.85;1.45;;;5.10;100.00;;;;;;4995064;28;20046;-77
2023/11/24 10:23:54;;;;;;;9.73;1.00;;;5.10;100.00;;;;;;5008098;28;20053;-76
2023/11/24 10:26:21;;;;;;;13.13;1.35;;;5.20;100.00;;;;;;5025558;28;20053;-76
2023/11/24 10:28:48;;;;;;;8.50;1.25;;;5.20;100.00;;;;;;5024509;28;20056;-76
2023/11/24 10:31:16;;;;;;;8.98;1.13;;;5.20;100.00;;;;;;5008845;28;20557;-71
2023/11/24 10:33:44;;;;;;;17.08;1.73;;;5.40;100.00;;;;;;5011411;28;20088;-72
2023/11/24 10:36:11;;;;;;;10.75;1.20;;;5.60;100.00;;;;;;5034344;28;20133;-76
2023/11/24 10:38:40;;;;;;;12.13;1.65;;;5.40;100.00;;;;;;5019807;28;20081;-75
2023/11/24 10:41:18;;;;;;;9.98;1.20;;;5.50;100.00;;;;;;5019870;28;20060;-74
2023/11/24 10:43:50;;;;;;;16.27;1.45;;;5.50;100.00;;;;;;5000654;28;20108;-76
2023/11/24 10:46:21;;;;;;;10.07;1.08;;;5.40;100.00;;;;;;5007843;28;20100;-77
2023/11/24 10:49:05;;;;;;;14.70;1.30;;;5.30;100.00;;;;;;5014208;28;20050;-72
2023/11/24 10:51:52;;;;;;;16.02;1.50;;;5.20;100.00;;;;;;5013767;28;20053;-71
2023/11/24 10:54:34;;;;;;;11.90;1.20;;;5.30;100.00;;;;;;5006910;28;20053;-74
2023/11/24 10:57:05;;;;;;;16.20;1.77;;;5.10;100.00;;;;;;5017815;28;20047;-75
2023/11/24 10:59:35;;;;;;;15.07;1.35;;;4.90;100.00;;;;;;5018967;28;20110;-73
2023/11/24 11:02:06;;;;;;;14.63;1.80;;;4.90;100.00;;;;;;5020633;28;20053;-73
2023/11/24 11:04:35;;;;;;;9.60;1.83;;;4.80;100.00;;;;;;5019195;28;20053;-75
2023/11/24 11:07:27;;;;;;;7.93;1.30;;;4.80;100.00;;;;;;5020935;28;20060;-73
2023/11/24 11:10:02;;;;;;;8.20;1.08;;;4.60;100.00;;;;;;4989570;28;20077;-73
2023/11/24 11:12:36;;;;;;;13.90;1.75;;;4.60;100.00;;;;;;5004549;28;20048;-73
2023/11/24 11:15:06;;;;;;;11.25;1.52;;;4.60;100.00;;;;;;5029342;28;20048;-72
2023/11/24 11:17:33;;;;;;;13.52;0.98;;;4.60;100.00;;;;;;5002110;28;20478;-71
2023/11/24 11:20:06;;;;;;;7.97;1.60;;;4.50;100.00;;;;;;5029412;28;20049;-72
2023/11/24 11:22:39;;;;;;;8.07;1.20;;;4.40;100.00;;;;;;4999463;28;20045;-73
2023/11/24 11:25:26;;;;;;;9.63;0.85;;;4.30;100.00;;;;;;5023328;28;20049;-73
2023/11/24 11:27:56;;;;;;;4.20;0.95;;;4.40;100.00;;;;;;5020834;28;20081;-73
2023/11/24 11:30:27;;;;;;;3.33;0.90;;;4.30;100.00;;;;;;5011744;28;20077;-71
2023/11/24 11:33:15;;;;;;;3.80;0.88;;;4.30;100.00;;;;;;5027101;28;20430;-71
2023/11/24 11:35:42;;;;;;;5.78;0.57;;;4.40;100.00;;;;;;5014032;28;20049;-71
2023/11/24 11:38:15;;;;;;;5.55;0.90;;;4.40;100.00;;;;;;5028382;28;20453;-76
2023/11/24 11:40:45;;;;;;;4.30;0.75;;;4.40;100.00;;;;;;5024740;28;20049;-76
2023/11/24 11:43:13;;;;;;;4.05;0.60;;;4.40;100.00;;;;;;5030146;28;20065;-76
2023/11/24 11:45:51;;;;;;;11.48;1.10;;;4.50;100.00;;;;;;5029403;28;20100;-76
2023/11/24 11:48:20;;;;;;;4.60;0.47;;;4.60;100.00;;;;;;5023727;28;20135;-72
2023/11/24 11:51:00;;;;;;;4.10;0.82;;;4.50;100.00;;;;;;5000117;28;20061;-70
2023/11/24 11:53:31;;;;;;;4.40;0.73;;;4.60;100.00;;;;;;5033358;28;20063;-71
2023/11/24 11:55:59;;;;;;;9.27;1.00;;;4.50;100.00;;;;;;5034619;28;20052;-73
2023/11/24 11:58:29;;;;;;;2.65;0.60;;;4.60;100.00;;;;;;5024151;28;20127;-71
2023/11/24 12:00:55;;;;;;;6.55;0.90;;;4.60;100.00;;;;;;5006587;28;20082;-71
2023/11/24 12:03:22;;;;;;;6.13;1.27;;;4.60;100.00;;;;;;5028740;28;20053;-72
2023/11/24 12:05:53;;;;;;;5.72;1.48;;;4.60;100.00;;;;;;5020401;28;20361;-73
2023/11/24 12:08:23;;;;;;;6.10;1.13;;;4.60;100.00;;;;;;5023945;28;20361;-74
2023/11/24 12:10:50;;;;;;;10.75;1.20;;;4.60;100.00;;;;;;5019046;28;20061;-73
2023/11/24 12:13:17;;;;;;;10.05;1.08;;;4.60;100.00;;;;;;5015637;28;20555;-72
2023/11/24 12:15:44;;;;;;;5.97;1.02;;;4.50;100.00;;;;;;5028428;28;20057;-74
2023/11/24 12:18:15;;;;;;;11.07;1.48;;;4.60;100.00;;;;;;5003687;28;20056;-73
2023/11/24 12:20:44;;;;;;;5.68;0.95;;;4.60;100.00;;;;;;5022455;28;20045;-73
2023/11/24 12:23:11;;;;;;;8.07;1.30;;;4.60;100.00;;;;;;5020612;28;20055;-73
2023/11/24 12:25:39;;;;;;;8.90;0.95;;;4.70;100.00;;;;;;5018916;28;20209;-73
2023/11/24 12:28:11;;;;;;;2.97;1.35;;;4.60;100.00;;;;;;5012878;28;20050;-73
2023/11/24 12:30:42;;;;;;;9.52;1.35;;;4.60;100.00;;;;;;5000315;28;20049;-73
2023/11/24 12:33:19;;;;;;;4.97;1.20;;;4.60;100.00;;;;;;5006803;28;20506;-73
2023/11/24 12:35:47;;;;;;;6.85;0.95;;;4.60;100.00;;;;;;5000992;28;20148;-73
2023/11/24 12:38:18;;;;;;;11.40;1.00;;;4.60;100.00;;;;;;5023426;28;20053;-74
2023/11/24 12:40:46;;;;;;;5.18;1.00;;;4.60;100.00;;;;;;5030231;28;20049;-73
2023/11/24 12:43:17;;;;;;;13.55;1.83;;;4.60;100.00;;;;;;5015392;28;20044;-73
2023/11/24 12:45:48;;;;;;;9.68;1.42;;;4.60;100.00;;;;;;5023734;28;20080;-75
2023/11/24 12:48:19;;;;;;;5.93;1.02;;;4.60;100.00;;;;;;5025093;28;20053;-73
2023/11/24 12:50:47;;;;;;;12.25;1.38;;;4.60;100.00;;;;;;5029167;28;20141;-73
2023/11/24 12:53:15;;;;;;;8.82;1.50;;;4.60;100.00;;;;;;5011080;28;20085;-73
2023/11/24 12:55:43;;;;;;;11.52;1.02;;;4.60;100.00;;;;;;5027547;28;20565;-73
2023/11/24 12:58:10;;;;;;;8.68;1.45;;;4.70;100.00;;;;;;5006122;28;20049;-73
2023/11/24 13:00:38;;;;;;;13.27;1.63;;;4.80;100.00;;;;;;5023050;28;20713;-73
2023/11/24 13:03:05;;;;;;;13.27;2.03;;;4.80;100.00;;;;;;5026953;28;20050;-73
2023/11/24 13:05:37;;;;;;;10.45;1.67;;;4.70;100.00;;;;;;5022627;28;20060;-73
2023/11/24 13:08:05;;;;;;;8.90;1.20;;;4.70;100.00;;;;;;5023237;28;20179;-73
2023/11/24 13:10:34;;;;;;;9.48;0.95;;;4.60;100.00;;;;;;5032186;28;20053;-73
2023/11/24 13:13:01;;;;;;;11.80;1.30;;;4.50;100.00;;;;;;5028748;28;20049;-74
2023/11/24 13:15:29;;;;;;;8.23;1.17;;;4.40;100.00;;;;;;5026591;28;20041;-74
2023/11/24 13:17:56;;;;;;;7.60;0.80;;;4.20;100.00;;;;;;5032838;28;20057;-74
2023/11/24 13:20:28;;;;;;;6.97;1.75;;;4.00;100.00;;;;;;5023301;28;20517;-74
2023/11/24 13:22:56;;;;;;;13.35;1.50;;;3.90;100.00;;;;;;5032078;28;20045;-74
2023/11/24 13:25:26;;;;;;;14.73;1.80;;;3.80;100.00;;;;;;5022296;28;20046;-74
2023/11/24 13:27:54;;;;;;;4.50;1.08;;;3.70;100.00;;;;;;5017781;28;20132;-74
2023/11/24 13:30:25;;;;;;;9.07;1.73;;;3.60;100.00;;;;;;5009097;28;20123;-74
2023/11/24 13:32:53;;;;;;;9.82;1.55;;;3.60;100.00;;;;;;5029202;28;20446;-74
2023/11/24 13:35:20;;;;;;;8.77;1.15;;;3.60;100.00;;;;;;5005124;28;20125;-74
2023/11/24 13:37:49;;;;;;;7.25;1.55;;;3.60;100.00;;;;;;5021894;28;20057;-74
2023/11/24 13:40:19;;;;;;;10.43;0.93;;;3.70;100.00;;;;;;5033237;28;20077;-74
2023/11/24 13:42:47;;;;;;;9.73;1.67;;;3.70;100.00;;;;;;5030085;28;20144;-73
2023/11/24 13:45:16;;;;;;;3.75;1.00;;;3.80;100.00;;;;;;5012668;28;20041;-73
2023/11/24 13:47:44;;;;;;;15.95;1.23;;;3.80;100.00;;;;;;5026900;28;20065;-74
2023/11/24 13:50:13;;;;;;;10.05;1.15;;;3.80;100.00;;;;;;5020511;28;20643;-75
2023/11/24 13:52:54;;;;;;;5.80;0.77;;;3.80;100.00;;;;;;5033497;28;20498;-76
2023/11/24 13:55:22;;;;;;;6.20;1.35;;;3.80;100.00;;;;;;5014059;28;20406;-74
2023/11/24 13:57:50;;;;;;;17.02;1.58;;;3.80;100.00;;;;;;5030442;28;20064;-74
2023/11/24 14:00:17;;;;;;;6.65;1.20;;;3.80;100.00;;;;;;5032276;28;20052;-75